createdAt,value
2022-08-10T00:00:52.073Z,23.03
2022-08-10T00:03:21.147Z,23.01
2022-08-10T00:05:52.993Z,22.99
2022-08-10T00:08:22.803Z,22.97
2022-08-10T00:10:51.886Z,22.94
2022-08-10T00:13:19.638Z,22.92
2022-08-10T00:15:53.409Z,22.88
2022-08-10T00:18:35.997Z,22.85
2022-08-10T00:21:04.986Z,22.82
2022-08-10T00:23:32.688Z,22.79
2022-08-10T00:26:00.983Z,22.76
2022-08-10T00:28:29.260Z,22.72
2022-08-10T00:30:57.243Z,22.69
2022-08-10T00:33:26.325Z,22.63
2022-08-10T00:35:54.026Z,22.62
2022-08-10T00:38:21.799Z,22.58
2022-08-10T00:40:49.698Z,22.55
2022-08-10T00:43:23.813Z,22.51
2022-08-10T00:45:59.012Z,22.48
2022-08-10T00:48:31.383Z,22.45
2022-08-10T00:50:59.397Z,22.41
2022-08-10T00:53:27.321Z,22.39
2022-08-10T00:57:05.118Z,22.35
2022-08-10T00:58:43.201Z,22.32
2022-08-10T01:02:07.514Z,22.30
2022-08-10T01:04:57.590Z,22.27
2022-08-10T01:06:53.288Z,22.24
2022-08-10T01:09:23.766Z,22.22
2022-08-10T01:12:38.735Z,22.20
2022-08-10T01:14:47.700Z,22.18
2022-08-10T01:17:18.563Z,22.15
2022-08-10T01:19:55.567Z,22.13
2022-08-10T01:22:38.193Z,22.11
2022-08-10T01:25:21.194Z,22.08
2022-08-10T01:27:53.653Z,22.06
2022-08-10T01:30:24.375Z,22.04
2022-08-10T01:32:55.433Z,22.03
2022-08-10T01:35:27.710Z,22.02
2022-08-10T01:37:59.974Z,22.01
2022-08-10T01:40:29.209Z,21.99
2022-08-10T01:42:59.713Z,21.97
2022-08-10T01:45:44.695Z,21.96
2022-08-10T01:48:31.074Z,21.94
2022-08-10T01:51:05.576Z,21.91
2022-08-10T01:53:40.914Z,21.89
2022-08-10T01:56:10.414Z,21.87
2022-08-10T01:58:39.444Z,21.86
2022-08-10T02:01:11.193Z,21.85
2022-08-10T02:04:03.913Z,21.83
2022-08-10T02:06:35.043Z,21.80
2022-08-10T02:09:06.234Z,21.79
2022-08-10T02:12:06.964Z,21.78
2022-08-10T02:14:23.464Z,21.75
2022-08-10T02:16:53.188Z,21.73
2022-08-10T02:19:23.174Z,21.72
2022-08-10T02:22:36.729Z,21.70
2022-08-10T02:24:42.030Z,21.68
2022-08-10T02:27:10.466Z,21.66
2022-08-10T02:29:42.255Z,21.64
2022-08-10T02:32:13.642Z,21.61
2022-08-10T02:34:51.968Z,21.58
2022-08-10T02:37:23.025Z,21.56
2022-08-10T02:39:50.834Z,21.53
2022-08-10T02:45:18.409Z,21.51
2022-08-10T02:45:29.687Z,21.47
2022-08-10T02:48:03.050Z,21.45
2022-08-10T02:50:33.353Z,21.41
2022-08-10T02:53:02.736Z,21.38
2022-08-10T02:55:35.344Z,21.35
2022-08-10T02:58:13.358Z,21.32
2022-08-10T03:00:48.019Z,21.29
2022-08-10T03:03:20.932Z,21.25
2022-08-10T03:05:50.389Z,21.23
2022-08-10T03:08:19.847Z,21.20
2022-08-10T03:10:49.251Z,21.17
2022-08-10T03:13:17.952Z,21.14
2022-08-10T03:15:46.217Z,21.10
2022-08-10T03:18:14.734Z,21.08
2022-08-10T03:20:44.879Z,21.05
2022-08-10T03:23:14.455Z,21.03
2022-08-10T03:25:53.249Z,21.01
2022-08-10T03:28:22.736Z,20.98
2022-08-10T03:30:50.919Z,20.96
2022-08-10T03:33:19.090Z,20.94
2022-08-10T03:36:43.672Z,20.92
2022-08-10T03:38:36.604Z,20.89
2022-08-10T03:41:05.324Z,20.89
2022-08-10T03:43:34.003Z,20.88
2022-08-10T03:46:04.148Z,20.86
2022-08-10T03:48:48.841Z,20.85
2022-08-10T03:51:22.945Z,20.84
2022-08-10T03:54:02.893Z,20.83
2022-08-10T03:56:35.673Z,20.82
2022-08-10T03:59:05.141Z,20.80
2022-08-10T04:02:52.386Z,20.78
2022-08-10T04:04:24.725Z,20.77
2022-08-10T04:06:55.680Z,20.74
2022-08-10T04:09:24.390Z,20.72
2022-08-10T04:11:52.160Z,20.70
2022-08-10T04:14:35.655Z,20.68
2022-08-10T04:17:12.004Z,20.64
2022-08-10T04:19:44.177Z,20.62
2022-08-10T04:22:16.061Z,20.57
2022-08-10T04:24:45.568Z,20.54
2022-08-10T04:27:13.377Z,20.52
2022-08-10T04:29:41.306Z,20.49
2022-08-10T04:32:10.541Z,20.47
2022-08-10T04:34:38.782Z,20.45
2022-08-10T04:37:09.254Z,20.41
2022-08-10T04:39:42.791Z,20.39
2022-08-10T04:42:10.977Z,20.36
2022-08-10T04:44:38.757Z,20.34
2022-08-10T04:47:06.740Z,20.32
2022-08-10T04:49:56.324Z,20.28
2022-08-10T04:52:25.070Z,20.26
2022-08-10T04:54:54.649Z,20.24
2022-08-10T04:57:24.903Z,20.23
2022-08-10T04:59:52.601Z,20.22
2022-08-10T05:02:29.598Z,20.20
2022-08-10T05:04:58.759Z,20.19
2022-08-10T05:07:26.746Z,20.18
2022-08-10T05:10:01.827Z,20.17
2022-08-10T05:12:31.433Z,20.16
2022-08-10T05:14:59.180Z,20.16
2022-08-10T05:17:28.920Z,20.16
2022-08-10T05:20:05.034Z,20.15
2022-08-10T05:22:34.717Z,20.16
2022-08-10T05:25:07.935Z,20.17
2022-08-10T05:27:36.082Z,20.19
2022-08-10T05:30:07.069Z,20.22
2022-08-10T05:32:56.361Z,20.26
2022-08-10T05:35:26.153Z,20.33
2022-08-10T05:38:12.629Z,20.40
2022-08-10T05:40:46.807Z,20.50
2022-08-10T05:43:19.332Z,20.60
2022-08-10T05:46:17.571Z,20.69
2022-08-10T05:48:42.019Z,20.81
2022-08-10T05:51:24.120Z,20.90
2022-08-10T05:54:03.254Z,21.00
2022-08-10T05:56:53.450Z,21.06
2022-08-10T06:00:33.270Z,21.12
2022-08-10T06:02:31.453Z,21.18
2022-08-10T06:05:06.126Z,21.20
2022-08-10T06:07:34.027Z,21.20
2022-08-10T06:10:02.380Z,21.21
2022-08-10T06:12:53.426Z,21.20
2022-08-10T06:15:52.340Z,21.18
2022-08-10T06:18:10.794Z,21.17
2022-08-10T06:20:38.881Z,21.15
2022-08-10T06:23:07.326Z,21.14
2022-08-10T06:26:10.020Z,21.12
2022-08-10T06:28:25.674Z,21.11
2022-08-10T06:30:54.872Z,21.11
2022-08-10T06:33:23.822Z,21.11
2022-08-10T06:35:53.164Z,21.13
2022-08-10T06:38:22.493Z,21.16
2022-08-10T06:40:51.248Z,21.19
2022-08-10T06:43:21.625Z,21.23
2022-08-10T06:46:07.459Z,21.30
2022-08-10T06:48:39.088Z,21.38
2022-08-10T06:51:08.220Z,21.45
2022-08-10T06:53:52.112Z,21.54
2022-08-10T06:56:38.046Z,21.65
2022-08-10T06:59:21.260Z,21.76
2022-08-10T07:01:54.253Z,21.88
2022-08-10T07:04:32.967Z,22.02
2022-08-10T07:07:03.206Z,22.16
2022-08-10T07:09:32.191Z,22.32
2022-08-10T07:12:07.733Z,22.47
2022-08-10T07:14:38.503Z,22.63
2022-08-10T07:17:08.420Z,22.80
2022-08-10T07:19:50.375Z,22.96
2022-08-10T07:23:08.628Z,23.12
2022-08-10T07:25:10.987Z,23.30
2022-08-10T07:27:58.655Z,23.44
2022-08-10T07:30:28.409Z,23.62
2022-08-10T07:32:57.753Z,23.76
2022-08-10T07:35:28.357Z,23.91
2022-08-10T07:38:02.986Z,24.08
2022-08-10T07:40:34.735Z,24.24
2022-08-10T07:43:03.613Z,24.40
2022-08-10T07:45:32.709Z,24.57
2022-08-10T07:48:07.389Z,24.73
2022-08-10T07:50:37.374Z,24.92
2022-08-10T07:53:05.978Z,25.07
2022-08-10T07:56:04.548Z,25.26
2022-08-10T07:58:26.371Z,25.45
2022-08-10T08:00:55.018Z,25.62
2022-08-10T08:03:26.732Z,25.79
2022-08-10T08:06:02.500Z,25.96
2022-08-10T08:08:32.210Z,26.14
2022-08-10T08:11:00.816Z,26.31
2022-08-10T08:13:30.486Z,26.48
2022-08-10T08:16:18.138Z,26.64
2022-08-10T08:19:16.330Z,26.80
2022-08-10T08:24:08.086Z,26.97
2022-08-10T08:24:32.291Z,27.14
2022-08-10T08:27:02.906Z,27.29
2022-08-10T08:29:32.315Z,27.42
2022-08-10T08:32:01.667Z,27.58
2022-08-10T08:34:32.708Z,27.73
2022-08-10T08:37:01.824Z,27.87
2022-08-10T08:39:29.886Z,28.03
2022-08-10T08:42:17.571Z,28.17
2022-08-10T08:44:51.282Z,28.32
2022-08-10T08:48:03.202Z,28.46
2022-08-10T08:50:26.668Z,28.60
2022-08-10T08:53:00.938Z,28.73
2022-08-10T08:56:05.172Z,28.87
2022-08-10T08:58:29.102Z,29.02
2022-08-10T09:01:02.707Z,29.14
2022-08-10T09:03:44.680Z,29.27
2022-08-10T09:06:25.054Z,29.41
2022-08-10T09:09:07.811Z,29.55
2022-08-10T09:11:42.362Z,29.68
2022-08-10T09:14:22.110Z,29.80
2022-08-10T09:16:58.239Z,29.93
2022-08-10T09:19:36.665Z,30.04
2022-08-10T09:22:17.407Z,30.16
2022-08-10T09:24:50.825Z,30.27
2022-08-10T09:27:20.750Z,30.37
2022-08-10T09:29:54.855Z,30.47
2022-08-10T09:36:13.512Z,30.57
2022-08-10T09:36:23.162Z,30.66
2022-08-10T09:38:12.951Z,30.74
2022-08-10T09:41:00.265Z,30.82
2022-08-10T09:43:41.858Z,30.91
2022-08-10T09:46:15.147Z,30.97
2022-08-10T09:48:46.514Z,31.04
2022-08-10T09:51:44.131Z,31.10
2022-08-10T09:54:17.271Z,31.16
2022-08-10T09:56:49.877Z,31.21
2022-08-10T09:59:27.262Z,31.25
2022-08-10T10:02:15.911Z,31.27
2022-08-10T10:04:50.141Z,31.32
2022-08-10T10:07:24.577Z,31.37
2022-08-10T10:09:59.012Z,31.41
2022-08-10T10:12:31.988Z,31.44
2022-08-10T10:15:25.314Z,31.48
2022-08-10T10:18:12.085Z,31.50
2022-08-10T10:20:41.855Z,31.53
2022-08-10T10:23:15.178Z,31.56
2022-08-10T10:25:49.846Z,31.58
2022-08-10T10:28:44.420Z,31.62
2022-08-10T10:31:20.001Z,31.67
2022-08-10T10:33:52.623Z,31.69
2022-08-10T10:36:21.963Z,31.72
2022-08-10T10:38:50.358Z,31.75
2022-08-10T10:41:30.417Z,31.78
2022-08-10T10:44:24.824Z,31.84
2022-08-10T10:46:57.699Z,31.88
2022-08-10T10:49:32.337Z,31.92
2022-08-10T10:52:04.006Z,31.95
2022-08-10T10:54:36.904Z,32.00
2022-08-10T10:57:11.393Z,32.05
2022-08-10T10:59:55.508Z,32.09
2022-08-10T11:02:33.024Z,32.12
2022-08-10T11:05:06.121Z,32.14
2022-08-10T11:07:37.157Z,32.17
2022-08-10T11:10:32.073Z,32.19
2022-08-10T11:13:06.932Z,32.21
2022-08-10T11:15:55.022Z,32.23
2022-08-10T11:18:25.350Z,32.25
2022-08-10T11:20:59.446Z,32.27
2022-08-10T11:23:32.549Z,32.28
2022-08-10T11:26:02.541Z,32.30
2022-08-10T11:28:37.401Z,32.29
2022-08-10T11:31:08.158Z,32.29
2022-08-10T11:34:03.967Z,32.32
2022-08-10T11:36:33.581Z,32.31
2022-08-10T11:39:14.346Z,32.31
2022-08-10T11:42:07.909Z,32.33
2022-08-10T11:44:38.700Z,32.34
2022-08-10T11:47:10.834Z,32.36
2022-08-10T11:49:42.014Z,32.40
2022-08-10T11:52:14.552Z,32.42
2022-08-10T11:54:43.737Z,32.45
2022-08-10T11:57:12.869Z,32.48
2022-08-10T12:00:00.495Z,32.50
2022-08-10T12:02:32.658Z,32.52
2022-08-10T12:05:03.440Z,32.54
2022-08-10T12:10:01.545Z,32.56
2022-08-10T12:10:23.511Z,32.58
2022-08-10T12:12:55.240Z,32.58
2022-08-10T12:15:33.960Z,32.57
2022-08-10T12:18:04.519Z,32.59
2022-08-10T12:20:34.456Z,32.58
2022-08-10T12:23:08.972Z,32.59
2022-08-10T12:25:55.666Z,32.60
2022-08-10T12:28:50.615Z,32.60
2022-08-10T12:31:22.509Z,32.61
2022-08-10T12:34:02.958Z,32.61
2022-08-10T12:36:34.866Z,32.63
2022-08-10T12:39:05.328Z,32.65
2022-08-10T12:41:45.081Z,32.67
2022-08-10T12:44:15.921Z,32.65
2022-08-10T12:46:50.265Z,32.65
2022-08-10T12:49:21.105Z,32.63
2022-08-10T12:52:04.159Z,32.61
2022-08-10T12:54:35.941Z,32.58
2022-08-10T12:57:06.727Z,32.52
2022-08-10T12:59:43.440Z,32.47
2022-08-10T13:02:15.718Z,32.42
2022-08-10T13:04:44.270Z,32.36
2022-08-10T13:08:03.289Z,32.31
2022-08-10T13:10:03.084Z,32.26
2022-08-10T13:12:35.231Z,32.22
2022-08-10T13:15:25.262Z,32.19
2022-08-10T13:18:02.380Z,32.17
2022-08-10T13:20:35.172Z,32.17
2022-08-10T13:23:06.912Z,32.17
2022-08-10T13:25:37.403Z,32.16
2022-08-10T13:28:36.252Z,32.15
2022-08-10T13:30:56.812Z,32.15
2022-08-10T13:34:39.507Z,32.13
2022-08-10T13:36:19.557Z,32.12
2022-08-10T13:38:48.817Z,32.12
2022-08-10T13:41:19.566Z,32.10
2022-08-10T13:43:52.365Z,32.09
2022-08-10T13:46:22.457Z,32.07
2022-08-10T13:48:53.362Z,32.06
2022-08-10T13:51:23.097Z,32.05
2022-08-10T13:54:14.107Z,32.02
2022-08-10T13:56:44.052Z,32.00
2022-08-10T13:59:16.306Z,31.96
2022-08-10T14:01:47.582Z,31.95
2022-08-10T14:04:16.831Z,31.92
2022-08-10T14:06:51.507Z,31.91
2022-08-10T14:09:24.456Z,31.90
2022-08-10T14:11:55.612Z,31.88
2022-08-10T14:14:24.560Z,31.87
2022-08-10T14:16:52.794Z,31.85
2022-08-10T14:19:23.137Z,31.83
2022-08-10T14:21:51.336Z,31.81
2022-08-10T14:24:23.939Z,31.79
2022-08-10T14:26:52.863Z,31.76
2022-08-10T14:29:22.461Z,31.74
2022-08-10T14:32:01.739Z,31.71
2022-08-10T14:36:14.857Z,31.68
2022-08-10T14:37:24.162Z,31.63
2022-08-10T14:39:53.713Z,31.59
2022-08-10T14:42:27.709Z,31.55
2022-08-10T14:44:58.242Z,31.52
2022-08-10T14:47:53.718Z,31.49
2022-08-10T14:50:32.659Z,31.47
2022-08-10T14:53:02.062Z,31.43
2022-08-10T14:55:31.429Z,31.41
2022-08-10T14:58:21.204Z,31.37
2022-08-10T15:00:50.386Z,31.31
2022-08-10T15:04:01.317Z,31.27
2022-08-10T15:06:18.315Z,31.24
2022-08-10T15:08:47.517Z,31.19
2022-08-10T15:12:11.712Z,31.15
2022-08-10T15:14:41.253Z,31.12
2022-08-10T15:16:56.188Z,31.08
2022-08-10T15:20:01.234Z,31.05
2022-08-10T15:22:37.071Z,30.99
2022-08-10T15:25:18.243Z,30.95
2022-08-10T15:27:55.094Z,30.91
2022-08-10T15:30:29.599Z,30.89
2022-08-10T15:33:21.193Z,30.84
2022-08-10T15:36:25.795Z,30.80
2022-08-10T15:39:00.501Z,30.75
2022-08-10T15:41:57.837Z,30.72
2022-08-10T15:44:24.547Z,30.66
2022-08-10T15:46:54.426Z,30.63
2022-08-10T15:49:26.108Z,30.60
2022-08-10T15:52:02.903Z,30.57
2022-08-10T15:54:34.279Z,30.54
2022-08-10T15:57:03.830Z,30.52
2022-08-10T15:59:33.871Z,30.48
2022-08-10T16:02:13.291Z,30.45
2022-08-10T16:04:48.641Z,30.40
2022-08-10T16:07:19.877Z,30.36
2022-08-10T16:10:24.900Z,30.31
2022-08-10T16:12:43.323Z,30.27
2022-08-10T16:15:13.424Z,30.24
2022-08-10T16:17:55.432Z,30.20
2022-08-10T16:20:27.888Z,30.16
2022-08-10T16:23:00.077Z,30.11
2022-08-10T16:25:52.140Z,30.07
2022-08-10T16:28:23.192Z,30.02
2022-08-10T16:30:52.153Z,29.96
2022-08-10T16:33:23.150Z,29.92
2022-08-10T16:35:52.661Z,29.87
2022-08-10T16:38:21.573Z,29.83
2022-08-10T16:40:53.215Z,29.80
2022-08-10T16:43:23.843Z,29.75
2022-08-10T16:45:54.929Z,29.72
2022-08-10T16:48:49.607Z,29.69
2022-08-10T16:51:17.904Z,29.64
2022-08-10T16:53:47.481Z,29.62
2022-08-10T16:56:17.501Z,29.59
2022-08-10T16:58:46.677Z,29.57
2022-08-10T17:01:16.680Z,29.54
2022-08-10T17:04:06.569Z,29.53
2022-08-10T17:06:36.144Z,29.49
2022-08-10T17:09:05.924Z,29.48
2022-08-10T17:11:37.094Z,29.45
2022-08-10T17:14:08.265Z,29.42
2022-08-10T17:16:37.081Z,29.39
2022-08-10T17:19:09.607Z,29.36
2022-08-10T17:21:50.919Z,29.33
2022-08-10T17:24:21.019Z,29.30
2022-08-10T17:26:51.840Z,29.28
2022-08-10T17:29:58.971Z,29.26
2022-08-10T17:32:15.816Z,29.23
2022-08-10T17:34:46.724Z,29.20
2022-08-10T17:37:17.991Z,29.17
2022-08-10T17:39:48.908Z,29.15
2022-08-10T17:42:21.721Z,29.12
2022-08-10T17:44:50.709Z,29.09
2022-08-10T17:47:19.547Z,29.05
2022-08-10T17:49:48.628Z,29.04
2022-08-10T17:52:21.053Z,29.04
2022-08-10T17:54:54.807Z,29.02
2022-08-10T17:57:24.584Z,29.03
2022-08-10T17:59:53.625Z,29.01
2022-08-10T18:02:24.521Z,29.03
2022-08-10T18:04:53.655Z,29.03
2022-08-10T18:07:23.230Z,29.03
2022-08-10T18:09:52.874Z,29.01
2022-08-10T18:12:30.188Z,29.00
2022-08-10T18:15:05.879Z,28.98
2022-08-10T18:17:39.610Z,28.98
2022-08-10T18:20:08.930Z,28.98
2022-08-10T18:22:43.387Z,28.98
2022-08-10T18:25:17.301Z,28.99
2022-08-10T18:28:05.259Z,29.01
2022-08-10T18:30:37.296Z,29.05
2022-08-10T18:33:10.474Z,29.09
2022-08-10T18:35:39.655Z,29.12
2022-08-10T18:38:07.923Z,29.13
2022-08-10T18:40:37.106Z,29.13
2022-08-10T18:44:06.157Z,29.12
2022-08-10T18:45:57.908Z,29.10
2022-08-10T18:48:27.911Z,29.06
2022-08-10T18:50:59.908Z,29.03
2022-08-10T18:53:31.635Z,28.98
2022-08-10T18:56:09.246Z,28.92
2022-08-10T18:58:52.554Z,28.85
2022-08-10T19:01:33.643Z,28.80
2022-08-10T19:04:14.568Z,28.71
2022-08-10T19:06:47.257Z,28.63
2022-08-10T19:09:46.258Z,28.55
2022-08-10T19:12:31.894Z,28.46
2022-08-10T19:15:05.964Z,28.36
2022-08-10T19:18:03.795Z,28.28
2022-08-10T19:20:35.357Z,28.18
2022-08-10T19:23:08.469Z,28.09
2022-08-10T19:26:37.780Z,28.02
2022-08-10T19:28:32.839Z,27.94
2022-08-10T19:31:03.885Z,27.87
2022-08-10T19:33:36.960Z,27.79
2022-08-10T19:36:09.576Z,27.71
2022-08-10T19:38:50.875Z,27.63
2022-08-10T19:41:30.973Z,27.55
2022-08-10T19:44:04.697Z,27.48
2022-08-10T19:46:38.650Z,27.40
2022-08-10T19:49:15.050Z,27.35
2022-08-10T19:51:48.845Z,27.27
2022-08-10T19:54:18.948Z,27.20
2022-08-10T19:56:55.916Z,27.13
2022-08-10T20:00:16.562Z,27.07
2022-08-10T20:02:18.680Z,27.01
2022-08-10T20:04:53.942Z,26.94
2022-08-10T20:07:26.848Z,26.89
2022-08-10T20:10:00.366Z,26.83
2022-08-10T20:12:35.841Z,26.78
2022-08-10T20:15:07.025Z,26.72
2022-08-10T20:17:52.225Z,26.66
2022-08-10T20:20:30.488Z,26.61
2022-08-10T20:23:02.478Z,26.56
2022-08-10T20:25:32.419Z,26.51
2022-08-10T20:28:04.706Z,26.45
2022-08-10T20:30:33.476Z,26.39
2022-08-10T20:33:05.040Z,26.35
2022-08-10T20:35:44.129Z,26.30
2022-08-10T20:38:14.476Z,26.26
2022-08-10T20:40:43.766Z,26.20
2022-08-10T20:43:20.428Z,26.16
2022-08-10T20:46:07.903Z,26.10
2022-08-10T20:48:39.067Z,26.06
2022-08-10T20:51:12.463Z,26.01
2022-08-10T20:53:45.330Z,25.96
2022-08-10T20:56:18.374Z,25.92
2022-08-10T20:59:08.950Z,25.89
2022-08-10T21:02:11.217Z,25.84
2022-08-10T21:04:40.877Z,25.80
2022-08-10T21:07:28.189Z,25.77
2022-08-10T21:10:04.565Z,25.73
2022-08-10T21:12:49.870Z,25.70
2022-08-10T21:15:24.709Z,25.66
2022-08-10T21:17:59.555Z,25.63
2022-08-10T21:20:36.129Z,25.60
2022-08-10T21:23:08.599Z,25.57
2022-08-10T21:25:43.733Z,25.54
2022-08-10T21:28:25.162Z,25.52
2022-08-10T21:31:10.711Z,25.48
2022-08-10T21:33:46.118Z,25.45
2022-08-10T21:36:18.529Z,25.42
2022-08-10T21:38:51.727Z,25.39
2022-08-10T21:41:57.255Z,25.37
2022-08-10T21:44:51.000Z,25.33
2022-08-10T21:48:07.344Z,25.31
2022-08-10T21:50:58.002Z,25.26
2022-08-10T21:53:46.262Z,25.23
2022-08-10T21:56:39.911Z,25.20
2022-08-10T21:59:29.165Z,25.18
2022-08-10T22:02:22.723Z,25.15
2022-08-10T22:05:16.681Z,25.12
2022-08-10T22:08:06.197Z,25.10
2022-08-10T22:11:00.108Z,25.07
2022-08-10T22:13:47.578Z,25.05
2022-08-10T22:16:40.567Z,25.03
2022-08-10T22:19:26.188Z,24.99
2022-08-10T22:22:27.106Z,24.98
2022-08-10T22:26:00.156Z,24.94
2022-08-10T22:28:48.832Z,24.92
2022-08-10T22:31:50.394Z,24.89
2022-08-10T22:34:58.846Z,24.85
2022-08-10T22:37:52.168Z,24.82
2022-08-10T22:40:38.761Z,24.79
2022-08-10T22:43:35.870Z,24.76
2022-08-10T22:46:30.307Z,24.73
2022-08-10T22:49:00.111Z,24.70
2022-08-10T22:51:39.265Z,24.68
2022-08-10T22:54:31.713Z,24.65
2022-08-10T22:57:18.710Z,24.62
2022-08-10T22:59:46.845Z,24.59
2022-08-10T23:02:26.712Z,24.55
2022-08-10T23:05:01.174Z,24.51
2022-08-10T23:07:30.643Z,24.50
2022-08-10T23:10:00.863Z,24.46
2022-08-10T23:12:31.008Z,24.43
2022-08-10T23:15:16.715Z,24.41
2022-08-10T23:18:07.619Z,24.37
2022-08-10T23:20:36.514Z,24.35
2022-08-10T23:23:09.739Z,24.33
2022-08-10T23:25:43.758Z,24.29
2022-08-10T23:28:55.485Z,24.26
2022-08-10T23:31:14.812Z,24.24
2022-08-10T23:33:46.566Z,24.21
2022-08-10T23:36:33.454Z,24.19
2022-08-10T23:39:25.920Z,24.17
2022-08-10T23:41:55.026Z,24.13
2022-08-10T23:44:23.628Z,24.11
2022-08-10T23:46:53.630Z,24.08
2022-08-10T23:49:24.327Z,24.05
2022-08-10T23:51:55.659Z,24.01
2022-08-10T23:54:25.221Z,23.99
2022-08-10T23:56:55.311Z,23.95
2022-08-10T23:59:24.684Z,23.92
